Oklahoma City, OK (73142)

10:04 AM CST on January 25, 2015 (GMT -0600)
Hefner Lake | Change Station
CLOSE
Current Station
Personal Weather Station
Location: Oklahoma City, OK
Elevation: 1201 ft
Nearby Weather Stations
Active Advisory: Wind Advisory

Elev 1201 ft 35.58 °N, 97.63 °W | Updated 4 seconds ago

Clear
Clear
50.1 °F
Feels Like 50.1 °F
N
14.1
Wind Variable Wind from NW
Gusts 14.1 mph

Today
High -- | Low -- °F
--% Chance of Precip.
Yesterday
High -- | Low -- °F
Precip. -- in
7:35 AM 5:50 PM
Waxing Crescent, 33% visible
Pressure 30.01 in
Visibility 10.0 miles
Clouds Clear
Dew Point 30 °F
Humidity 46%
Rainfall 0.00 in
Snow Depth Not available.
UV 2 out of 12
Pollen 5.40 out of 12
Air Quality Not available.
Flu Activity Not available.
METAR KPWA 251553Z 33015G32KT 10SM CLR 11/M01 A3001 RMK AO2 PK WND 33032/1545 SLP162 T01111011

More Conditions Fewer Conditions

Pressure 30.01 in
Visibility 10.0 miles
Clouds Clear
Dew Point 30 °F
Humidity 46%
Rainfall 0.00 in
Snow Depth Not available.
UV 2 out of 12
Pollen 5.40 out of 12
Air Quality Not available.
Flu Activity Not available.
METAR KPWA 251553Z 33015G32KT 10SM CLR 11/M01 A3001 RMK AO2 PK WND 33032/1545 SLP162 T01111011

More Conditions Fewer Conditions

10-Day Weather Forecast

Almanac

Astronomy

Jan. 25, 2015 Rise Set
Actual Time
Civil Twilight
Nautical Twilight
Astronomical Twilight
Moon
Length of Visible Light
Length of Day
Tomorrow will be .
, % of the Moon is Illuminated

Today's Extremes

State Highs State Lows

Community

WunderPhotos

Upload Photos

1,789,934 photos uploaded!

WunderBlogs® & News

Nearby

Air Quality

  Air Quality AQ Index Pollutant
Not available.

Snow Depth

Station Depth Elevation

Earthquake Activity

City Distance Mag. Time & Date
Minimum magnitude displayed is 2.5.

Coastal Water Temperatures

Place Temperature

Nearby Weather Stations